Time;durP1;ratioP1;P1;durP2;ratioP2;P2;SDS_P1;SDS_P2;PMS_P1;PMS_P2;Temp;Humidity;BMP_temperature;BMP_pressure;BME280_temperature;BME280_humidity;BME280_pressure;Samples;Min_cycle;Max_cycle;Signal;HPM_P1;HPM_P2
2023/07/13 00:02:26;;;;;;;18.10;3.97;;;;;;;;;;5093836;28;20125;-74
2023/07/13 00:04:52;;;;;;;16.58;4.03;;;;;;;;;;5093773;28;20075;-74
2023/07/13 00:07:19;;;;;;;11.23;3.55;;;;;;;;;;5093444;28;20497;-75
2023/07/13 00:09:46;;;;;;;18.45;4.07;;;;;;;;;;5076395;28;20046;-74
2023/07/13 00:12:23;;;;;;;19.58;4.20;;;;;;;;;;5092746;28;20056;-75
2023/07/13 00:14:50;;;;;;;17.60;4.43;;;;;;;;;;5093735;28;20056;-74
2023/07/13 00:17:16;;;;;;;22.58;4.00;;;;;;;;;;5093565;28;20111;-74
2023/07/13 00:19:42;;;;;;;16.70;3.97;;;;;;;;;;5076707;28;20070;-75
2023/07/13 00:22:08;;;;;;;19.35;4.25;;;;;;;;;;5092928;28;20040;-75
2023/07/13 00:24:35;;;;;;;19.50;4.18;;;;;;;;;;5093723;28;20538;-74
2023/07/13 00:27:02;;;;;;;21.25;4.38;;;;;;;;;;5092007;28;20527;-74
2023/07/13 00:29:28;;;;;;;15.15;3.88;;;;;;;;;;5092640;28;20550;-74
2023/07/13 00:31:54;;;;;;;17.95;4.00;;;;;;;;;;5094656;28;20111;-75
2023/07/13 00:34:20;;;;;;;15.60;3.95;;;;;;;;;;5093022;28;20512;-74
2023/07/13 00:36:46;;;;;;;13.23;3.70;;;;;;;;;;5094314;28;20036;-75
2023/07/13 00:39:13;;;;;;;18.25;4.20;;;;;;;;;;5091932;28;20044;-75
2023/07/13 00:41:39;;;;;;;17.95;5.05;;;;;;;;;;5075861;28;20135;-74
2023/07/13 00:44:05;;;;;;;18.27;3.92;;;;;;;;;;5076103;28;20040;-74
2023/07/13 00:46:32;;;;;;;19.15;4.13;;;;;;;;;;5075959;28;20043;-75
2023/07/13 00:49:01;;;;;;;16.75;4.28;;;;;;;;;;5093031;28;20532;-74
2023/07/13 00:51:30;;;;;;;17.00;4.20;;;;;;;;;;5078845;28;20036;-76
2023/07/13 00:53:59;;;;;;;15.38;4.13;;;;;;;;;;5092787;28;20036;-75
2023/07/13 00:56:25;;;;;;;14.05;3.42;;;;;;;;;;5092692;28;20042;-75
2023/07/13 00:58:51;;;;;;;14.77;3.75;;;;;;;;;;5092707;28;20058;-75
2023/07/13 01:01:17;;;;;;;14.43;4.18;;;;;;;;;;5092092;28;20117;-75
2023/07/13 01:03:44;;;;;;;16.05;3.67;;;;;;;;;;5092798;28;20508;-75
2023/07/13 01:06:10;;;;;;;12.90;3.78;;;;;;;;;;5075284;28;20047;-75
2023/07/13 01:08:36;;;;;;;10.45;3.35;;;;;;;;;;5092424;28;20055;-75
2023/07/13 01:11:02;;;;;;;14.60;3.72;;;;;;;;;;5092239;28;20385;-74
2023/07/13 01:13:28;;;;;;;18.80;3.85;;;;;;;;;;5075126;28;20044;-74
2023/07/13 01:15:56;;;;;;;15.45;3.72;;;;;;;;;;5092387;28;20082;-75
2023/07/13 01:18:25;;;;;;;12.32;2.95;;;;;;;;;;5092165;28;20077;-73
2023/07/13 01:20:55;;;;;;;14.55;3.80;;;;;;;;;;5091985;28;20044;-73
2023/07/13 01:23:22;;;;;;;14.98;3.50;;;;;;;;;;5091902;28;20485;-75
2023/07/13 01:25:48;;;;;;;13.32;3.25;;;;;;;;;;5092160;28;20043;-74
2023/07/13 01:28:16;;;;;;;13.57;3.75;;;;;;;;;;5091916;28;20512;-75
2023/07/13 01:30:45;;;;;;;14.50;2.90;;;;;;;;;;5091906;28;20096;-75
2023/07/13 01:33:12;;;;;;;12.98;3.38;;;;;;;;;;5091407;28;20149;-75
2023/07/13 01:35:38;;;;;;;13.25;2.72;;;;;;;;;;5093444;28;20051;-74
2023/07/13 01:38:04;;;;;;;11.40;2.97;;;;;;;;;;5091688;28;20044;-75
2023/07/13 01:40:31;;;;;;;10.82;2.90;;;;;;;;;;5088874;28;20044;-75
2023/07/13 01:42:57;;;;;;;11.85;3.17;;;;;;;;;;5080377;28;20079;-75
2023/07/13 01:45:23;;;;;;;10.60;2.70;;;;;;;;;;5091104;28;20512;-75
2023/07/13 01:47:49;;;;;;;10.55;2.88;;;;;;;;;;5091834;28;20044;-74
2023/07/13 01:50:15;;;;;;;10.20;3.08;;;;;;;;;;5091756;28;20097;-73
2023/07/13 01:52:41;;;;;;;11.48;2.80;;;;;;;;;;5090650;28;20047;-73
2023/07/13 01:55:07;;;;;;;8.05;2.90;;;;;;;;;;5091805;28;20040;-73
2023/07/13 01:57:33;;;;;;;14.57;3.47;;;;;;;;;;5091054;28;20044;-73
2023/07/13 02:00:00;;;;;;;14.77;2.90;;;;;;;;;;5091733;28;20048;-73
2023/07/13 02:02:26;;;;;;;13.43;3.22;;;;;;;;;;5089024;28;20431;-73
2023/07/13 02:04:52;;;;;;;13.70;3.40;;;;;;;;;;5092528;28;20055;-73
2023/07/13 02:07:18;;;;;;;10.50;3.28;;;;;;;;;;5090554;28;20554;-73
2023/07/13 02:09:44;;;;;;;16.67;3.42;;;;;;;;;;5091023;28;20040;-73
2023/07/13 02:12:10;;;;;;;13.32;3.80;;;;;;;;;;5090540;28;20044;-73
2023/07/13 02:14:36;;;;;;;18.55;4.35;;;;;;;;;;5092556;28;20048;-73
2023/07/13 02:17:03;;;;;;;15.60;4.05;;;;;;;;;;5091853;28;20071;-73
2023/07/13 02:19:29;;;;;;;16.92;3.72;;;;;;;;;;5090801;28;20094;-74
2023/07/13 02:21:55;;;;;;;15.90;3.70;;;;;;;;;;5090724;28;20397;-74
2023/07/13 02:24:21;;;;;;;16.88;3.97;;;;;;;;;;5074241;28;20404;-73
2023/07/13 02:26:48;;;;;;;14.95;3.63;;;;;;;;;;5074179;28;20036;-74
2023/07/13 02:29:14;;;;;;;15.85;3.38;;;;;;;;;;5092139;28;20044;-73
2023/07/13 02:31:40;;;;;;;13.98;3.90;;;;;;;;;;5091009;28;20036;-73
2023/07/13 02:34:06;;;;;;;15.27;3.72;;;;;;;;;;5090734;28;20120;-73
2023/07/13 02:36:32;;;;;;;18.88;4.32;;;;;;;;;;5090641;28;20048;-73
2023/07/13 02:39:01;;;;;;;22.00;4.38;;;;;;;;;;5090580;28;20051;-73
2023/07/13 02:41:27;;;;;;;18.23;4.35;;;;;;;;;;5073807;28;20047;-73
2023/07/13 02:43:53;;;;;;;17.88;4.53;;;;;;;;;;5090441;28;20079;-73
2023/07/13 02:46:19;;;;;;;22.08;4.53;;;;;;;;;;5090692;28;20040;-73
2023/07/13 02:48:46;;;;;;;17.20;4.32;;;;;;;;;;5073976;28;20122;-73
2023/07/13 02:51:12;;;;;;;17.60;4.63;;;;;;;;;;5090720;28;20097;-73
2023/07/13 02:53:38;;;;;;;15.88;4.47;;;;;;;;;;5090298;28;20501;-73
2023/07/13 02:56:05;;;;;;;23.27;5.18;;;;;;;;;;5074076;28;20170;-73
2023/07/13 02:58:31;;;;;;;17.63;4.30;;;;;;;;;;5073554;28;20131;-73
2023/07/13 03:00:58;;;;;;;23.38;5.13;;;;;;;;;;5092090;28;20054;-73
2023/07/13 03:03:24;;;;;;;23.02;5.00;;;;;;;;;;5092123;28;20128;-74
2023/07/13 03:05:59;;;;;;;21.63;5.35;;;;;;;;;;5094282;28;20101;-74
2023/07/13 03:08:26;;;;;;;19.50;5.23;;;;;;;;;;5077930;28;20054;-74
2023/07/13 03:11:01;;;;;;;16.70;4.70;;;;;;;;;;5096071;28;20492;-74
2023/07/13 03:13:27;;;;;;;21.77;5.40;;;;;;;;;;5094362;28;20044;-73
2023/07/13 03:15:53;;;;;;;19.90;4.85;;;;;;;;;;5093986;28;20084;-73
2023/07/13 03:18:19;;;;;;;22.88;5.20;;;;;;;;;;5093614;28;20043;-73
2023/07/13 03:20:45;;;;;;;21.00;5.13;;;;;;;;;;5094963;28;20076;-73
2023/07/13 03:23:11;;;;;;;21.15;5.10;;;;;;;;;;5094501;28;20044;-72
2023/07/13 03:25:37;;;;;;;20.88;4.47;;;;;;;;;;5095022;28;20043;-73
2023/07/13 03:28:04;;;;;;;20.45;5.13;;;;;;;;;;5094105;28;20040;-74
2023/07/13 03:30:30;;;;;;;19.10;4.90;;;;;;;;;;5094591;28;20542;-73
2023/07/13 03:32:56;;;;;;;19.55;5.68;;;;;;;;;;5094157;28;20047;-73
2023/07/13 03:35:22;;;;;;;20.00;5.28;;;;;;;;;;5093780;28;20050;-73
2023/07/13 03:37:48;;;;;;;14.98;5.45;;;;;;;;;;5094684;28;20507;-73
2023/07/13 03:40:14;;;;;;;19.02;4.75;;;;;;;;;;5094025;28;20039;-73
2023/07/13 03:42:40;;;;;;;16.70;4.95;;;;;;;;;;5093817;28;20044;-73
2023/07/13 03:45:07;;;;;;;22.48;5.45;;;;;;;;;;5093943;28;20063;-73
2023/07/13 03:47:33;;;;;;;20.08;4.82;;;;;;;;;;5093671;28;20059;-73
2023/07/13 03:49:59;;;;;;;19.15;4.55;;;;;;;;;;5094546;28;20032;-73
2023/07/13 03:52:25;;;;;;;20.52;4.95;;;;;;;;;;5094726;28;20107;-73
2023/07/13 03:54:51;;;;;;;16.77;4.38;;;;;;;;;;5075683;28;20063;-73
2023/07/13 03:57:19;;;;;;;20.58;4.95;;;;;;;;;;5093551;28;20113;-73
2023/07/13 03:59:45;;;;;;;22.88;5.53;;;;;;;;;;5093388;28;20067;-73
2023/07/13 04:02:11;;;;;;;21.23;4.82;;;;;;;;;;5083713;28;20040;-73
2023/07/13 04:04:40;;;;;;;20.27;4.60;;;;;;;;;;5091915;28;20051;-73
2023/07/13 04:07:08;;;;;;;15.55;4.43;;;;;;;;;;5101451;28;20409;-73
2023/07/13 04:09:34;;;;;;;16.95;4.30;;;;;;;;;;5094358;28;20447;-73
2023/07/13 04:12:00;;;;;;;16.77;4.53;;;;;;;;;;5093634;28;20448;-73
2023/07/13 04:14:26;;;;;;;19.85;4.82;;;;;;;;;;5092073;28;20044;-73
2023/07/13 04:16:54;;;;;;;18.23;5.00;;;;;;;;;;5076735;28;20048;-73
2023/07/13 04:19:20;;;;;;;20.38;4.63;;;;;;;;;;5094053;28;20119;-73
2023/07/13 04:21:46;;;;;;;19.13;4.65;;;;;;;;;;5093218;28;20040;-73
2023/07/13 04:24:12;;;;;;;19.95;4.85;;;;;;;;;;5093795;28;20511;-73
2023/07/13 04:26:39;;;;;;;18.00;4.28;;;;;;;;;;5092748;28;20088;-74
2023/07/13 04:29:05;;;;;;;26.23;5.15;;;;;;;;;;5093696;28;20439;-73
2023/07/13 04:31:32;;;;;;;17.45;4.22;;;;;;;;;;5075697;28;20050;-74
2023/07/13 04:33:58;;;;;;;19.42;4.63;;;;;;;;;;5094835;28;20137;-73
2023/07/13 04:36:26;;;;;;;17.70;4.03;;;;;;;;;;5094150;28;20040;-74
2023/07/13 04:38:53;;;;;;;16.80;4.40;;;;;;;;;;5092520;28;20040;-73
2023/07/13 04:41:20;;;;;;;14.07;4.10;;;;;;;;;;5094459;28;20082;-73
2023/07/13 04:43:46;;;;;;;16.15;4.38;;;;;;;;;;5092582;28;20051;-74
2023/07/13 04:46:13;;;;;;;12.90;3.75;;;;;;;;;;5092918;28;20476;-74
2023/07/13 04:48:39;;;;;;;13.02;3.70;;;;;;;;;;5094016;28;20032;-74
2023/07/13 04:51:05;;;;;;;14.13;3.67;;;;;;;;;;5092851;28;20040;-73
2023/07/13 04:53:32;;;;;;;12.80;3.60;;;;;;;;;;5092905;28;20047;-73
2023/07/13 04:55:58;;;;;;;16.35;4.28;;;;;;;;;;5092510;28;20615;-73
2023/07/13 04:58:25;;;;;;;10.70;3.22;;;;;;;;;;5092864;28;20549;-74
2023/07/13 05:00:51;;;;;;;13.20;3.67;;;;;;;;;;5092514;28;20060;-74
2023/07/13 05:03:17;;;;;;;14.25;3.83;;;;;;;;;;5092958;28;20051;-73
2023/07/13 05:05:44;;;;;;;14.38;3.70;;;;;;;;;;5075215;28;20035;-73
2023/07/13 05:08:10;;;;;;;11.40;3.03;;;;;;;;;;5092165;28;20075;-74
2023/07/13 05:10:36;;;;;;;13.50;3.50;;;;;;;;;;5091854;28;20040;-74
2023/07/13 05:13:02;;;;;;;11.57;3.30;;;;;;;;;;5092130;28;20036;-74
2023/07/13 05:15:29;;;;;;;9.38;3.30;;;;;;;;;;5092820;28;20044;-72
2023/07/13 05:17:55;;;;;;;13.77;2.95;;;;;;;;;;5092072;28;20044;-73
2023/07/13 05:20:21;;;;;;;9.48;2.63;;;;;;;;;;5091691;28;20047;-73
2023/07/13 05:22:47;;;;;;;13.00;3.10;;;;;;;;;;5092506;28;20036;-74
2023/07/13 05:25:13;;;;;;;12.70;2.60;;;;;;;;;;5091839;28;20079;-74
2023/07/13 05:27:40;;;;;;;13.25;2.92;;;;;;;;;;5075295;28;20504;-74
2023/07/13 05:30:06;;;;;;;11.50;2.60;;;;;;;;;;5092258;28;20481;-74
2023/07/13 05:32:33;;;;;;;14.07;2.92;;;;;;;;;;5093157;28;20544;-74
2023/07/13 05:34:59;;;;;;;16.70;3.00;;;;;;;;;;5091654;28;20028;-74
2023/07/13 05:37:25;;;;;;;10.50;2.67;;;;;;;;;;5092183;28;20048;-74
2023/07/13 05:39:51;;;;;;;11.30;2.75;;;;;;;;;;5092761;28;20126;-73
2023/07/13 05:42:18;;;;;;;9.77;2.75;;;;;;;;;;5092911;28;20036;-72
2023/07/13 05:44:44;;;;;;;10.68;2.85;;;;;;;;;;5074714;28;20051;-74
2023/07/13 05:47:10;;;;;;;13.00;2.80;;;;;;;;;;5056229;28;20049;-73
2023/07/13 05:49:36;;;;;;;15.68;3.42;;;;;;;;;;5092019;28;20496;-74
2023/07/13 05:52:02;;;;;;;8.10;2.90;;;;;;;;;;5074967;28;20393;-74
2023/07/13 05:54:29;;;;;;;12.10;2.95;;;;;;;;;;5074915;28;20083;-73
2023/07/13 05:56:55;;;;;;;8.55;2.63;;;;;;;;;;5074383;28;20043;-74
2023/07/13 05:59:21;;;;;;;9.02;2.42;;;;;;;;;;5091360;28;20093;-73
2023/07/13 06:01:48;;;;;;;11.70;3.00;;;;;;;;;;5091035;28;20043;-74
2023/07/13 06:04:14;;;;;;;9.55;2.72;;;;;;;;;;5091793;28;20396;-73
2023/07/13 06:06:40;;;;;;;10.18;2.88;;;;;;;;;;5092206;28;20072;-73
2023/07/13 06:09:06;;;;;;;12.90;2.63;;;;;;;;;;5092839;28;20055;-74
2023/07/13 06:11:32;;;;;;;6.25;2.20;;;;;;;;;;5084143;28;20044;-73
2023/07/13 06:13:58;;;;;;;10.40;2.58;;;;;;;;;;5090784;28;20070;-74
2023/07/13 06:16:24;;;;;;;9.43;2.05;;;;;;;;;;5091067;28;20091;-73
2023/07/13 06:18:50;;;;;;;10.57;2.50;;;;;;;;;;5092567;28;20078;-74
2023/07/13 06:21:17;;;;;;;10.50;2.28;;;;;;;;;;5091412;28;20092;-73
2023/07/13 06:23:44;;;;;;;12.07;2.10;;;;;;;;;;5090370;28;20039;-74
2023/07/13 06:26:11;;;;;;;7.07;2.00;;;;;;;;;;5092231;28;20035;-73
2023/07/13 06:28:37;;;;;;;8.00;2.30;;;;;;;;;;5091483;28;20569;-73
2023/07/13 06:31:06;;;;;;;8.25;2.20;;;;;;;;;;5092394;28;20036;-73
2023/07/13 06:33:32;;;;;;;8.95;2.22;;;;;;;;;;5090600;28;20118;-73
2023/07/13 06:35:58;;;;;;;6.47;1.90;;;;;;;;;;5090666;28;20491;-74
2023/07/13 06:38:25;;;;;;;8.52;2.25;;;;;;;;;;5089470;28;20143;-74
2023/07/13 06:40:51;;;;;;;9.93;2.30;;;;;;;;;;5073740;28;20124;-75
2023/07/13 06:43:18;;;;;;;7.55;2.20;;;;;;;;;;5092126;28;20047;-75
2023/07/13 06:45:49;;;;;;;10.00;2.10;;;;;;;;;;5090638;28;20036;-73
2023/07/13 06:48:15;;;;;;;10.63;2.28;;;;;;;;;;5092219;28;20119;-73
2023/07/13 06:50:42;;;;;;;8.95;2.00;;;;;;;;;;5091001;28;20374;-74
2023/07/13 06:53:08;;;;;;;10.60;2.38;;;;;;;;;;5089711;28;20036;-74
2023/07/13 06:55:34;;;;;;;9.43;2.60;;;;;;;;;;5092394;28;20396;-75
2023/07/13 06:58:00;;;;;;;7.97;2.15;;;;;;;;;;5090378;28;20241;-74
2023/07/13 07:00:27;;;;;;;11.40;2.33;;;;;;;;;;5092199;28;20048;-74
2023/07/13 07:02:53;;;;;;;10.18;2.60;;;;;;;;;;5091690;28;20040;-74
2023/07/13 07:05:21;;;;;;;7.03;2.30;;;;;;;;;;5092183;28;20081;-74
2023/07/13 07:07:48;;;;;;;8.77;2.50;;;;;;;;;;5089906;28;20052;-73
2023/07/13 07:10:14;;;;;;;11.30;2.70;;;;;;;;;;5090620;28;20048;-75
2023/07/13 07:12:40;;;;;;;11.68;2.70;;;;;;;;;;5090156;28;20063;-74
2023/07/13 07:15:06;;;;;;;8.38;2.70;;;;;;;;;;5090784;28;20393;-75
2023/07/13 07:17:32;;;;;;;9.45;2.33;;;;;;;;;;5092089;28;20036;-75
2023/07/13 07:19:58;;;;;;;8.00;2.40;;;;;;;;;;5090044;28;20040;-74
2023/07/13 07:22:27;;;;;;;9.13;2.38;;;;;;;;;;5089697;28;20036;-71
2023/07/13 07:24:53;;;;;;;10.20;2.70;;;;;;;;;;5089366;28;20039;-73
2023/07/13 07:27:19;;;;;;;10.60;2.50;;;;;;;;;;5090479;28;20043;-75
2023/07/13 07:29:45;;;;;;;9.80;2.90;;;;;;;;;;5076127;28;20072;-74
2023/07/13 07:32:11;;;;;;;10.05;2.58;;;;;;;;;;5089927;28;20598;-74
2023/07/13 07:34:37;;;;;;;13.18;3.00;;;;;;;;;;5090816;28;20036;-74
2023/07/13 07:37:04;;;;;;;11.50;3.47;;;;;;;;;;5090872;28;20036;-73
2023/07/13 07:39:30;;;;;;;12.70;3.83;;;;;;;;;;5090131;28;20048;-73
2023/07/13 07:41:56;;;;;;;10.60;3.05;;;;;;;;;;5072063;28;20504;-73
2023/07/13 07:44:23;;;;;;;14.27;3.60;;;;;;;;;;5089276;28;20032;-72
2023/07/13 07:46:49;;;;;;;14.18;3.25;;;;;;;;;;5091449;28;20496;-73
2023/07/13 07:49:15;;;;;;;12.45;3.47;;;;;;;;;;5089527;28;20071;-72
2023/07/13 07:51:41;;;;;;;10.73;3.40;;;;;;;;;;5094783;28;20044;-72
2023/07/13 07:54:07;;;;;;;11.52;3.30;;;;;;;;;;5093092;28;20119;-72
2023/07/13 07:56:33;;;;;;;7.63;3.00;;;;;;;;;;5093734;28;20047;-72
2023/07/13 07:58:59;;;;;;;11.93;3.83;;;;;;;;;;5094622;28;20047;-72
2023/07/13 08:01:26;;;;;;;9.40;3.60;;;;;;;;;;5076829;28;20032;-72
2023/07/13 08:03:52;;;;;;;8.82;3.03;;;;;;;;;;5092639;28;20052;-72
2023/07/13 08:06:19;;;;;;;7.80;3.25;;;;;;;;;;5092671;28;20157;-73
2023/07/13 08:08:45;;;;;;;6.38;2.70;;;;;;;;;;5095084;28;20052;-73
2023/07/13 08:11:12;;;;;;;7.32;3.35;;;;;;;;;;5092809;28;20036;-74
2023/07/13 08:13:38;;;;;;;6.43;3.17;;;;;;;;;;5093311;28;20060;-73
2023/07/13 08:16:05;;;;;;;7.30;3.15;;;;;;;;;;5087221;28;20040;-74
2023/07/13 08:18:32;;;;;;;7.38;2.90;;;;;;;;;;5093477;28;20040;-73
2023/07/13 08:20:58;;;;;;;5.85;2.90;;;;;;;;;;5088621;28;20071;-73
2023/07/13 08:23:25;;;;;;;5.13;2.60;;;;;;;;;;5076357;28;20040;-73
2023/07/13 08:25:52;;;;;;;8.85;3.03;;;;;;;;;;5092538;28;20516;-73
2023/07/13 08:28:18;;;;;;;6.22;3.10;;;;;;;;;;5091712;28;20063;-72
2023/07/13 08:30:44;;;;;;;7.53;2.88;;;;;;;;;;5089185;28;20101;-72
2023/07/13 08:33:10;;;;;;;33.92;5.72;;;;;;;;;;5093819;28;20036;-72
2023/07/13 08:35:36;;;;;;;7.65;3.00;;;;;;;;;;5092384;28;20040;-72
2023/07/13 08:38:02;;;;;;;5.93;3.17;;;;;;;;;;5092999;28;20036;-72
2023/07/13 08:40:28;;;;;;;6.38;3.20;;;;;;;;;;5092794;28;20040;-73
2023/07/13 08:42:56;;;;;;;5.97;3.03;;;;;;;;;;5105474;28;20124;-73
2023/07/13 08:45:24;;;;;;;8.30;3.10;;;;;;;;;;5092186;28;20071;-74
2023/07/13 08:47:54;;;;;;;7.97;3.35;;;;;;;;;;5091425;28;20238;-73
2023/07/13 08:50:24;;;;;;;8.43;3.90;;;;;;;;;;5091420;28;20035;-68
2023/07/13 08:52:51;;;;;;;6.70;2.90;;;;;;;;;;5091924;28;20119;-70
2023/07/13 08:55:28;;;;;;;8.77;2.85;;;;;;;;;;5093705;28;20040;-71
2023/07/13 08:58:01;;;;;;;5.82;2.80;;;;;;;;;;5092532;28;20119;-69
2023/07/13 09:00:34;;;;;;;5.53;2.80;;;;;;;;;;5092897;28;20039;-71
2023/07/13 09:03:01;;;;;;;6.30;2.90;;;;;;;;;;5091856;28;20559;-70
2023/07/13 09:05:31;;;;;;;7.10;3.17;;;;;;;;;;5088264;28;20063;-70
2023/07/13 09:08:16;;;;;;;5.70;3.30;;;;;;;;;;5090728;28;20425;-70
2023/07/13 09:10:47;;;;;;;8.50;3.90;;;;;;;;;;5090779;28;20036;-70
2023/07/13 09:13:32;;;;;;;8.02;4.10;;;;;;;;;;5093342;28;20546;-71
2023/07/13 09:15:59;;;;;;;8.90;4.30;;;;;;;;;;5090321;28;20058;-71
2023/07/13 09:18:40;;;;;;;10.27;3.90;;;;;;;;;;5082558;28;20048;-70
2023/07/13 09:21:06;;;;;;;6.63;3.30;;;;;;;;;;5090687;28;20119;-70
2023/07/13 09:23:32;;;;;;;7.13;3.13;;;;;;;;;;5092942;28;20039;-70
2023/07/13 09:26:13;;;;;;;6.63;2.60;;;;;;;;;;5084501;28;20047;-72
2023/07/13 09:28:40;;;;;;;9.88;3.03;;;;;;;;;;5092639;28;20093;-73
2023/07/13 09:31:18;;;;;;;6.00;2.50;;;;;;;;;;5091736;28;20036;-71
2023/07/13 09:33:45;;;;;;;4.70;2.30;;;;;;;;;;5092212;28;20036;-70
2023/07/13 09:36:29;;;;;;;4.80;2.10;;;;;;;;;;5092717;28;20565;-71
2023/07/13 09:39:08;;;;;;;3.75;2.05;;;;;;;;;;5092657;28;20115;-69
2023/07/13 09:41:53;;;;;;;6.85;2.20;;;;;;;;;;5093594;28;20028;-70
2023/07/13 09:44:28;;;;;;;6.80;2.75;;;;;;;;;;5091011;28;20062;-67
2023/07/13 09:46:54;;;;;;;;;;;;;;;;;;5092052;28;20113;-70
2023/07/13 09:49:24;;;;;;;5.47;2.28;;;;;;;;;;5091219;28;20377;-71
2023/07/13 09:51:57;;;;;;;4.85;2.10;;;;;;;;;;5093463;28;20182;-70
2023/07/13 09:54:25;;;;;;;5.30;1.70;;;;;;;;;;5092558;28;20040;-71
2023/07/13 09:56:56;;;;;;;4.93;1.75;;;;;;;;;;5092823;28;20445;-72
2023/07/13 09:59:23;;;;;;;7.78;1.50;;;;;;;;;;5092384;28;20074;-70
2023/07/13 10:01:50;;;;;;;5.05;1.25;;;;;;;;;;5091934;28;20048;-72
2023/07/13 10:04:20;;;;;;;5.00;1.38;;;;;;;;;;5092148;28;20040;-70
2023/07/13 10:06:46;;;;;;;4.50;1.38;;;;;;;;;;5092111;28;20165;-69
2023/07/13 10:09:17;;;;;;;7.43;1.40;;;;;;;;;;5074015;28;20047;-70
2023/07/13 10:11:44;;;;;;;4.07;1.30;;;;;;;;;;5079586;28;20036;-68
2023/07/13 10:14:10;;;;;;;5.80;1.20;;;;;;;;;;5091900;28;20064;-68
2023/07/13 10:16:36;;;;;;;4.80;1.52;;;;;;;;;;5092673;28;20040;-68
2023/07/13 10:19:05;;;;;;;5.90;1.40;;;;;;;;;;5092328;28;20148;-68
2023/07/13 10:21:39;;;;;;;4.22;1.50;;;;;;;;;;5090696;28;20131;-70
2023/07/13 10:24:20;;;;;;;4.22;1.38;;;;;;;;;;5091495;28;20048;-69
2023/07/13 10:26:48;;;;;;;3.75;1.50;;;;;;;;;;5092138;28;20377;-70
2023/07/13 10:29:16;;;;;;;8.07;2.20;;;;;;;;;;5092042;28;20040;-69
2023/07/13 10:31:42;;;;;;;6.10;2.08;;;;;;;;;;5092472;28;20115;-68
2023/07/13 10:34:12;;;;;;;5.65;1.80;;;;;;;;;;5092356;28;20036;-68
2023/07/13 10:36:44;;;;;;;6.60;1.70;;;;;;;;;;5073511;28;20048;-70
2023/07/13 10:39:15;;;;;;;5.32;1.52;;;;;;;;;;5092115;28;20046;-69
2023/07/13 10:41:41;;;;;;;3.97;1.50;;;;;;;;;;5090974;28;20040;-71
2023/07/13 10:44:15;;;;;;;3.95;1.23;;;;;;;;;;5091363;28;20071;-69
2023/07/13 10:46:42;;;;;;;7.47;1.40;;;;;;;;;;5092184;28;20488;-69
2023/07/13 10:49:09;;;;;;;3.72;1.40;;;;;;;;;;5092064;28;20520;-68
2023/07/13 10:51:35;;;;;;;6.25;1.50;;;;;;;;;;5090625;28;20420;-69
2023/07/13 10:54:07;;;;;;;5.25;1.50;;;;;;;;;;5089708;28;20098;-68
2023/07/13 10:56:33;;;;;;;5.65;1.52;;;;;;;;;;5090903;28;20043;-68
2023/07/13 10:59:10;;;;;;;6.47;1.40;;;;;;;;;;5088880;28;20396;-69
2023/07/13 11:01:40;;;;;;;8.20;1.50;;;;;;;;;;5091390;28;20130;-69
2023/07/13 11:04:12;;;;;;;8.00;1.58;;;;;;;;;;5084724;28;20115;-67
2023/07/13 11:06:41;;;;;;;6.68;1.80;;;;;;;;;;5089613;28;20497;-70
2023/07/13 11:09:22;;;;;;;6.10;1.60;;;;;;;;;;5090430;28;20048;-68
2023/07/13 11:11:48;;;;;;;3.88;1.70;;;;;;;;;;5083206;28;20043;-69
2023/07/13 11:14:21;;;;;;;6.60;1.60;;;;;;;;;;5090674;28;20053;-67
2023/07/13 11:16:47;;;;;;;6.65;1.50;;;;;;;;;;5091901;28;20079;-68
2023/07/13 11:19:13;;;;;;;5.70;1.38;;;;;;;;;;5091219;28;20392;-69
2023/07/13 11:21:58;;;;;;;10.45;1.70;;;;;;;;;;5091308;28;20123;-69
2023/07/13 11:24:29;;;;;;;3.20;1.38;;;;;;;;;;5093114;28;20449;-67
2023/07/13 11:26:56;;;;;;;7.20;1.70;;;;;;;;;;5093475;28;20043;-68
2023/07/13 11:29:31;;;;;;;7.45;2.00;;;;;;;;;;5076991;28;20097;-72
2023/07/13 11:31:57;;;;;;;;;;;;;;;;;;5093512;28;20485;-68
2023/07/13 11:34:28;;;;;;;7.70;1.63;;;;;;;;;;5095366;28;19916;-69
2023/07/13 11:36:54;;;;;;;3.45;1.35;;;;;;;;;;5095598;28;20036;-69
2023/07/13 11:39:25;;;;;;;9.98;1.88;;;;;;;;;;5094737;28;20039;-67
2023/07/13 11:41:57;;;;;;;8.13;1.50;;;;;;;;;;5095653;28;20044;-67
2023/07/13 11:44:24;;;;;;;7.20;1.50;;;;;;;;;;5081784;28;20110;-68
2023/07/13 11:46:52;;;;;;;5.22;1.60;;;;;;;;;;5088546;28;20485;-70
2023/07/13 11:49:19;;;;;;;4.57;1.42;;;;;;;;;;5094280;28;20066;-68
2023/07/13 11:51:45;;;;;;;4.63;1.50;;;;;;;;;;5093720;28;20062;-67
2023/07/13 11:54:20;;;;;;;5.95;1.88;;;;;;;;;;5094993;28;20036;-66
2023/07/13 11:56:46;;;;;;;9.50;1.52;;;;;;;;;;5090413;28;20040;-69
2023/07/13 11:59:13;;;;;;;5.90;1.80;;;;;;;;;;5090321;28;20472;-67
2023/07/13 12:01:44;;;;;;;8.38;1.60;;;;;;;;;;5094577;28;20044;-68
2023/07/13 12:04:21;;;;;;;7.82;1.60;;;;;;;;;;5094033;28;20044;-69
2023/07/13 12:06:47;;;;;;;13.82;1.80;;;;;;;;;;5093593;28;20048;-68
2023/07/13 12:09:20;;;;;;;7.93;1.42;;;;;;;;;;5094482;28;20044;-68
2023/07/13 12:11:46;;;;;;;17.08;1.58;;;;;;;;;;5091735;28;20048;-69
2023/07/13 12:14:15;;;;;;;9.65;1.50;;;;;;;;;;5094082;28;20052;-68
2023/07/13 12:16:41;;;;;;;12.02;1.38;;;;;;;;;;5093932;28;20066;-68
2023/07/13 12:19:16;;;;;;;12.85;1.40;;;;;;;;;;5093090;28;20050;-69
2023/07/13 12:21:42;;;;;;;18.50;1.98;;;;;;;;;;5093666;28;20515;-69
2023/07/13 12:24:15;;;;;;;6.40;1.30;;;;;;;;;;5094677;28;20377;-70
2023/07/13 12:26:41;;;;;;;12.75;1.50;;;;;;;;;;5094316;28;20055;-69
2023/07/13 12:29:08;;;;;;;55.10;5.75;;;;;;;;;;5093654;28;20537;-68
2023/07/13 12:31:35;;;;;;;40.38;3.83;;;;;;;;;;5092667;28;20039;-68
2023/07/13 12:34:11;;;;;;;42.50;4.75;;;;;;;;;;5081980;28;20078;-68
2023/07/13 12:36:38;;;;;;;38.67;4.35;;;;;;;;;;5093507;28;20554;-69
2023/07/13 12:39:11;;;;;;;38.45;5.20;;;;;;;;;;5094598;28;20114;-69
2023/07/13 12:41:38;;;;;;;5.80;1.20;;;;;;;;;;5093989;28;20051;-69
2023/07/13 12:44:05;;;;;;;7.80;1.42;;;;;;;;;;5094156;28;20414;-69
2023/07/13 12:46:31;;;;;;;24.20;2.00;;;;;;;;;;5093785;28;20043;-68
2023/07/13 12:48:58;;;;;;;25.83;3.40;;;;;;;;;;5093871;28;20032;-68
2023/07/13 12:51:26;;;;;;;17.95;1.77;;;;;;;;;;5092825;28;20093;-69
2023/07/13 12:53:57;;;;;;;5.03;1.13;;;;;;;;;;5091047;28;20035;-70
2023/07/13 12:56:25;;;;;;;4.32;1.10;;;;;;;;;;5092449;28;20488;-68
2023/07/13 12:58:57;;;;;;;7.68;1.42;;;;;;;;;;5093416;28;20119;-68
2023/07/13 13:01:23;;;;;;;8.50;1.23;;;;;;;;;;5089277;28;20423;-68
2023/07/13 13:03:53;;;;;;;8.90;1.33;;;;;;;;;;5093128;28;20086;-68
2023/07/13 13:06:19;;;;;;;15.25;1.48;;;;;;;;;;5091832;28;20070;-68
2023/07/13 13:08:49;;;;;;;21.95;3.20;;;;;;;;;;5091099;28;20034;-70
2023/07/13 13:11:16;;;;;;;8.77;1.95;;;;;;;;;;5072670;28;20043;-70
2023/07/13 13:13:42;;;;;;;6.05;1.30;;;;;;;;;;5093090;28;20091;-69
2023/07/13 13:16:14;;;;;;;13.20;1.88;;;;;;;;;;5093408;28;20044;-67
2023/07/13 13:18:41;;;;;;;6.43;1.40;;;;;;;;;;5093581;28;20043;-68
2023/07/13 13:21:07;;;;;;;4.88;1.00;;;;;;;;;;5092322;28;20044;-69
2023/07/13 13:23:33;;;;;;;8.35;1.40;;;;;;;;;;5093107;28;20396;-69
2023/07/13 13:26:00;;;;;;;7.18;1.48;;;;;;;;;;5092957;28;20096;-68
2023/07/13 13:28:26;;;;;;;7.07;1.52;;;;;;;;;;5091995;28;20069;-68
2023/07/13 13:30:52;;;;;;;5.95;1.40;;;;;;;;;;5091813;28;20117;-69
2023/07/13 13:33:20;;;;;;;4.32;1.17;;;;;;;;;;5093312;28;20566;-68
2023/07/13 13:35:46;;;;;;;15.00;2.08;;;;;;;;;;5092633;28;20125;-69
2023/07/13 13:38:16;;;;;;;7.68;1.38;;;;;;;;;;5092390;28;20508;-68
2023/07/13 13:40:42;;;;;;;7.57;1.50;;;;;;;;;;5077595;28;20120;-67
2023/07/13 13:43:16;;;;;;;17.50;1.60;;;;;;;;;;5088948;28;20032;-68
2023/07/13 13:45:42;;;;;;;6.70;1.73;;;;;;;;;;5086739;28;20426;-68
2023/07/13 13:48:14;;;;;;;6.22;1.38;;;;;;;;;;5093025;28;20040;-69
2023/07/13 13:50:40;;;;;;;10.13;1.35;;;;;;;;;;5087344;28;20090;-68
2023/07/13 13:53:08;;;;;;;7.68;1.40;;;;;;;;;;5086402;28;20028;-68
2023/07/13 13:55:35;;;;;;;5.53;1.40;;;;;;;;;;5089351;28;20051;-68
2023/07/13 13:58:01;;;;;;;7.05;1.40;;;;;;;;;;5092693;28;20508;-69
2023/07/13 14:00:27;;;;;;;15.90;2.05;;;;;;;;;;5092990;28;20378;-68
2023/07/13 14:02:55;;;;;;;9.55;1.55;;;;;;;;;;5092590;28;20119;-68
2023/07/13 14:05:22;;;;;;;8.07;1.30;;;;;;;;;;5092771;28;20048;-68
2023/07/13 14:07:50;;;;;;;4.38;1.20;;;;;;;;;;5091569;28;20044;-70
2023/07/13 14:10:18;;;;;;;169.68;29.17;;;;;;;;;;5084560;28;20028;-69
2023/07/13 14:12:45;;;;;;;7.63;2.10;;;;;;;;;;5092897;28;20048;-69
2023/07/13 14:15:28;;;;;;;6.65;1.30;;;;;;;;;;5081508;28;20036;-69
2023/07/13 14:17:54;;;;;;;229.75;19.90;;;;;;;;;;5093873;28;20036;-69
2023/07/13 14:20:23;;;;;;;20.85;3.08;;;;;;;;;;5092447;28;20036;-69
2023/07/13 14:22:50;;;;;;;56.35;9.52;;;;;;;;;;5092353;28;20040;-71
2023/07/13 14:25:17;;;;;;;457.23;49.88;;;;;;;;;;5093508;28;20055;-68
2023/07/13 14:27:43;;;;;;;12.77;2.55;;;;;;;;;;5092931;28;20528;-69
2023/07/13 14:30:14;;;;;;;7.47;2.08;;;;;;;;;;5093422;28;20074;-68
2023/07/13 14:32:40;;;;;;;6.65;1.50;;;;;;;;;;5091307;28;20032;-69
2023/07/13 14:35:06;;;;;;;4.63;1.45;;;;;;;;;;5091389;28;20035;-68
2023/07/13 14:37:33;;;;;;;22.23;2.97;;;;;;;;;;5091563;28;20135;-68
2023/07/13 14:39:59;;;;;;;5.00;1.30;;;;;;;;;;5092929;28;20035;-67